Time;durP1;ratioP1;P1;durP2;ratioP2;P2;SDS_P1;SDS_P2;PMS_P1;PMS_P2;Temp;Humidity;BMP_temperature;BMP_pressure;BME280_temperature;BME280_humidity;BME280_pressure;Samples;Min_cycle;Max_cycle;Signal;HPM_P1;HPM_P2
2023/07/19 00:02:12;;;;;;;6.72;3.63;;;;;;;16.55;79.54;101382.78;4919014;29;20035;-48
2023/07/19 00:04:37;;;;;;;7.00;3.60;;;;;;;16.60;79.02;101388.97;4919218;29;20510;-47
2023/07/19 00:07:03;;;;;;;8.15;3.85;;;;;;;16.57;79.06;101383.66;4921825;29;20034;-50
2023/07/19 00:09:28;;;;;;;6.75;3.55;;;;;;;16.36;80.54;101380.00;4909345;29;20518;-48
2023/07/19 00:11:53;;;;;;;7.13;3.53;;;;;;;16.09;81.92;101368.38;4925235;29;20039;-47
2023/07/19 00:14:19;;;;;;;6.90;4.20;;;;;;;15.77;83.31;101361.03;4917414;29;20040;-46
2023/07/19 00:16:44;;;;;;;7.47;4.18;;;;;;;15.58;83.76;101361.69;4915030;29;20103;-45
2023/07/19 00:19:09;;;;;;;6.10;4.32;;;;;;;15.48;84.69;101374.72;4920651;29;20571;-46
2023/07/19 00:21:35;;;;;;;7.20;4.32;;;;;;;15.27;85.70;101372.69;4925751;29;20075;-46
2023/07/19 00:24:00;;;;;;;9.25;4.57;;;;;;;15.15;86.15;101371.66;4914223;29;20020;-48
2023/07/19 00:26:26;;;;;;;7.95;4.50;;;;;;;15.08;86.90;101361.09;4915109;29;20103;-47
2023/07/19 00:28:51;;;;;;;7.88;4.78;;;;;;;15.04;87.19;101361.91;4920098;29;20107;-46
2023/07/19 00:31:16;;;;;;;9.80;4.80;;;;;;;15.04;87.13;101354.03;4916581;29;20403;-47
2023/07/19 00:33:42;;;;;;;8.30;4.45;;;;;;;15.16;86.84;101347.19;4925366;29;20086;-46
2023/07/19 00:36:07;;;;;;;7.13;4.45;;;;;;;15.30;86.24;101337.75;4918631;29;20031;-45
2023/07/19 00:38:32;;;;;;;8.60;4.60;;;;;;;15.47;84.89;101338.81;4918630;29;20028;-49
2023/07/19 00:40:58;;;;;;;6.47;4.55;;;;;;;15.58;84.47;101336.31;4915718;29;20027;-50
2023/07/19 00:43:23;;;;;;;7.38;4.18;;;;;;;15.68;84.44;101334.66;4927493;29;20031;-46
2023/07/19 00:45:55;;;;;;;5.93;4.57;;;;;;;15.68;84.30;101331.16;4924956;29;20406;-49
2023/07/19 00:48:21;;;;;;;7.80;4.90;;;;;;;15.72;84.00;101332.94;4916337;29;20040;-47
2023/07/19 00:50:52;;;;;;;8.15;4.93;;;;;;;15.80;83.20;101329.56;4898227;29;20063;-50
2023/07/19 00:53:18;;;;;;;7.85;5.05;;;;;;;15.89;82.55;101322.63;4918826;29;20052;-46
2023/07/19 00:55:48;;;;;;;6.95;5.05;;;;;;;15.93;82.40;101327.94;4917220;29;20248;-47
2023/07/19 00:58:14;;;;;;;7.90;4.82;;;;;;;15.95;82.39;101326.19;4920798;29;20498;-48
2023/07/19 01:00:39;;;;;;;8.02;4.68;;;;;;;15.90;81.42;101316.50;4915430;29;20032;-48
2023/07/19 01:03:05;;;;;;;7.57;4.55;;;;;;;15.89;81.84;101322.63;4915313;29;20039;-47
2023/07/19 01:05:31;;;;;;;6.90;4.38;;;;;;;15.77;81.71;101332.13;4915534;29;20134;-47
2023/07/19 01:07:58;;;;;;;9.10;5.20;;;;;;;15.63;83.05;101328.47;4914493;29;20071;-47
2023/07/19 01:10:24;;;;;;;7.43;5.22;;;;;;;15.47;84.67;101330.06;4915359;29;20032;-50
2023/07/19 01:13:06;;;;;;;7.97;5.43;;;;;;;15.29;85.39;101320.22;4915234;29;20016;-48
2023/07/19 01:15:32;;;;;;;8.30;5.65;;;;;;;15.20;86.20;101323.59;4914344;29;20032;-48
2023/07/19 01:17:57;;;;;;;7.43;5.38;;;;;;;15.25;85.82;101313.16;4915208;29;20376;-49
2023/07/19 01:20:22;;;;;;;9.35;5.50;;;;;;;15.36;85.31;101311.53;4915031;29;20483;-47
2023/07/19 01:22:48;;;;;;;8.20;5.32;;;;;;;15.41;84.44;101302.00;4914954;29;20040;-47
2023/07/19 01:25:13;;;;;;;7.78;5.53;;;;;;;15.42;85.57;101308.09;4917670;29;20549;-46
2023/07/19 01:27:40;;;;;;;7.85;5.45;;;;;;;15.31;85.43;101305.38;4914253;29;20110;-47
2023/07/19 01:30:06;;;;;;;8.63;4.82;;;;;;;15.12;86.03;101304.28;4916825;29;20118;-48
2023/07/19 01:32:31;;;;;;;9.70;5.20;;;;;;;15.04;87.20;101301.53;4923056;29;20505;-49
2023/07/19 01:34:56;;;;;;;9.77;6.20;;;;;;;15.00;87.66;101301.50;4912836;29;20040;-46
2023/07/19 01:37:21;;;;;;;13.10;5.40;;;;;;;14.90;87.94;101297.84;4917607;29;20036;-47
2023/07/19 01:39:48;;;;;;;11.30;6.35;;;;;;;14.80;88.28;101291.59;4925091;29;20032;-47
2023/07/19 01:42:14;;;;;;;9.30;5.63;;;;;;;14.70;88.41;101295.88;4918267;29;20088;-45
2023/07/19 01:44:39;;;;;;;8.23;5.43;;;;;;;14.71;88.89;101294.09;4919823;29;20439;-47
2023/07/19 01:47:04;;;;;;;11.18;6.25;;;;;;;14.80;88.67;101288.97;4916088;29;20036;-45
2023/07/19 01:49:30;;;;;;;10.20;5.75;;;;;;;14.89;87.69;101290.88;4918097;29;20118;-48
2023/07/19 01:51:55;;;;;;;10.73;5.65;;;;;;;14.97;87.20;101299.69;4916445;29;20114;-48
2023/07/19 01:54:20;;;;;;;8.50;5.30;;;;;;;15.04;86.81;101295.41;4915859;29;20574;-46
2023/07/19 01:56:46;;;;;;;8.63;5.28;;;;;;;15.02;87.49;101295.41;4922385;29;20512;-46
2023/07/19 01:59:11;;;;;;;7.95;5.40;;;;;;;14.93;86.95;101295.28;4919294;29;20028;-46
2023/07/19 02:01:36;;;;;;;8.27;5.43;;;;;;;14.94;86.71;101299.66;4916035;29;20058;-47
2023/07/19 02:04:02;;;;;;;9.75;5.75;;;;;;;14.98;86.66;101301.47;4925366;29;20035;-49
2023/07/19 02:06:27;;;;;;;7.20;5.35;;;;;;;15.02;85.97;101300.66;4914312;29;20043;-48
2023/07/19 02:08:53;;;;;;;10.52;6.00;;;;;;;15.03;85.65;101291.91;4921365;29;20032;-47
2023/07/19 02:11:18;;;;;;;7.60;6.15;;;;;;;15.09;85.88;101284.13;4916777;29;20083;-49
2023/07/19 02:13:44;;;;;;;9.65;6.53;;;;;;;15.11;86.04;101285.00;4920543;29;20091;-46
2023/07/19 02:16:09;;;;;;;10.00;6.15;;;;;;;15.16;86.13;101285.06;4916694;29;20546;-48
2023/07/19 02:18:35;;;;;;;9.13;6.32;;;;;;;15.21;85.74;101285.13;4920030;29;20032;-49
2023/07/19 02:21:00;;;;;;;8.18;6.47;;;;;;;15.23;85.56;101275.53;4917186;29;20039;-45
2023/07/19 02:23:25;;;;;;;10.32;6.25;;;;;;;15.23;85.27;101272.88;4920985;29;20481;-45
2023/07/19 02:25:51;;;;;;;9.38;6.47;;;;;;;15.14;85.86;101268.41;4919857;29;20028;-49
2023/07/19 02:28:17;;;;;;;11.52;6.43;;;;;;;15.12;85.59;101276.28;4920138;29;20036;-46
2023/07/19 02:30:44;;;;;;;8.68;6.00;;;;;;;15.13;85.82;101274.53;4915979;29;20442;-45
2023/07/19 02:33:11;;;;;;;8.70;6.38;;;;;;;15.12;86.06;101278.91;4912312;29;20028;-47
2023/07/19 02:35:36;;;;;;;11.25;7.07;;;;;;;15.08;86.57;101279.72;4917657;29;20541;-47
2023/07/19 02:38:01;;;;;;;9.57;6.70;;;;;;;15.09;86.58;101268.38;4923123;29;20027;-47
2023/07/19 02:40:26;;;;;;;8.48;6.45;;;;;;;15.12;86.88;101268.41;4923909;29;20035;-47
2023/07/19 02:42:52;;;;;;;9.77;6.72;;;;;;;15.12;85.99;101267.53;4919363;29;20031;-47
2023/07/19 02:45:17;;;;;;;10.02;6.07;;;;;;;15.15;86.29;101271.91;4914344;29;20060;-49
2023/07/19 02:47:42;;;;;;;13.95;6.35;;;;;;;15.15;86.76;101279.78;4913338;29;20029;-49
2023/07/19 02:50:08;;;;;;;9.07;6.07;;;;;;;15.08;87.65;101282.34;4923154;29;20118;-45
2023/07/19 02:52:33;;;;;;;7.90;6.13;;;;;;;15.03;88.09;101284.03;4921828;29;20043;-45
2023/07/19 02:54:59;;;;;;;9.20;6.15;;;;;;;15.06;88.36;101276.22;4913617;29;20020;-45
2023/07/19 02:57:24;;;;;;;9.05;5.78;;;;;;;15.11;87.75;101278.88;4921947;29;20165;-45
2023/07/19 02:59:49;;;;;;;9.93;6.30;;;;;;;15.14;87.04;101278.91;4922749;29;20486;-47
2023/07/19 03:02:15;;;;;;;10.00;5.80;;;;;;;15.18;87.94;101278.09;4915927;29;20047;-48
2023/07/19 03:04:40;;;;;;;9.38;7.30;;;;;;;15.18;87.29;101277.19;4924589;29;20557;-46
2023/07/19 03:07:07;;;;;;;7.93;6.10;;;;;;;15.23;88.36;101279.00;4917371;29;20594;-46
2023/07/19 03:09:32;;;;;;;10.20;6.63;;;;;;;15.26;88.07;101278.16;4917370;29;20028;-48
2023/07/19 03:11:57;;;;;;;10.95;6.80;;;;;;;15.26;88.12;101279.03;4923773;29;20367;-46
2023/07/19 03:14:23;;;;;;;9.82;6.53;;;;;;;15.25;88.39;101286.91;4923837;29;20020;-45
2023/07/19 03:16:48;;;;;;;11.05;6.32;;;;;;;15.26;88.45;101276.41;4920471;29;20028;-45
2023/07/19 03:19:13;;;;;;;12.00;6.80;;;;;;;15.27;88.87;101288.69;4918128;29;20044;-47
2023/07/19 03:21:39;;;;;;;10.07;6.70;;;;;;;15.27;89.08;101285.19;4921991;29;20039;-47
2023/07/19 03:24:04;;;;;;;11.05;6.57;;;;;;;15.23;89.05;101278.16;4916501;29;20035;-48
2023/07/19 03:26:29;;;;;;;9.05;6.90;;;;;;;15.23;89.25;101286.03;4915176;29;20036;-48
2023/07/19 03:28:55;;;;;;;10.07;6.22;;;;;;;15.24;89.29;101287.78;4929716;29;20039;-49
2023/07/19 03:31:20;;;;;;;10.15;6.47;;;;;;;15.27;89.40;101287.81;4921815;29;20119;-47
2023/07/19 03:33:45;;;;;;;10.30;6.63;;;;;;;15.28;89.75;101292.22;4922871;29;20051;-46
2023/07/19 03:36:10;;;;;;;8.80;6.72;;;;;;;15.31;90.24;101294.88;4925222;29;20129;-47
2023/07/19 03:38:36;;;;;;;11.70;7.43;;;;;;;15.31;91.00;101297.50;4926407;29;20498;-49
2023/07/19 03:41:08;;;;;;;11.00;7.32;;;;;;;15.34;90.67;101296.63;4917590;29;20126;-45
2023/07/19 03:43:34;;;;;;;13.15;7.40;;;;;;;15.29;91.71;101292.22;4916363;29;20043;-44
2023/07/19 03:46:00;;;;;;;10.50;7.28;;;;;;;15.31;91.85;101294.88;4916732;29;20111;-45
2023/07/19 03:48:25;;;;;;;10.93;7.70;;;;;;;15.37;92.88;101297.56;4916837;29;20137;-47
2023/07/19 03:50:58;;;;;;;14.48;8.07;;;;;;;15.35;91.98;101290.53;4916733;29;20016;-46
2023/07/19 03:53:24;;;;;;;11.85;8.00;;;;;;;15.35;92.40;101299.31;4916715;29;20048;-46
2023/07/19 03:55:57;;;;;;;13.32;8.20;;;;;;;15.30;92.29;101293.97;4916031;29;20028;-48
2023/07/19 03:58:26;;;;;;;10.23;7.32;;;;;;;15.33;92.44;101292.25;4916678;29;20039;-45
2023/07/19 04:00:56;;;;;;;13.93;7.38;;;;;;;15.33;93.15;101297.50;4916323;29;20024;-45
2023/07/19 04:03:22;;;;;;;11.45;7.95;;;;;;;15.33;92.58;101298.38;4916417;29;20308;-46
2023/07/19 04:05:47;;;;;;;15.18;8.57;;;;;;;15.33;92.28;101295.75;4915465;29;20262;-47
2023/07/19 04:08:14;;;;;;;13.23;8.65;;;;;;;15.32;93.40;101296.63;4916777;29;20099;-46
2023/07/19 04:10:39;;;;;;;12.07;7.88;;;;;;;15.35;93.49;101293.16;4915458;29;20032;-46
2023/07/19 04:13:04;;;;;;;11.40;8.15;;;;;;;15.34;93.23;101289.66;4914807;29;20028;-47
2023/07/19 04:15:30;;;;;;;12.57;8.20;;;;;;;15.37;93.53;101294.06;4920539;29;20070;-48
2023/07/19 04:17:55;;;;;;;14.88;8.82;;;;;;;15.38;94.51;101291.44;4917254;29;20039;-48
2023/07/19 04:20:22;;;;;;;13.15;8.68;;;;;;;15.41;94.35;101291.47;4914802;29;20435;-45
2023/07/19 04:22:48;;;;;;;12.05;9.30;;;;;;;15.39;95.41;101285.31;4917288;29;20047;-46
2023/07/19 04:25:13;;;;;;;12.15;8.60;;;;;;;15.36;95.55;101287.91;4932091;29;20023;-46
2023/07/19 04:27:39;;;;;;;14.00;9.18;;;;;;;15.37;94.76;101284.44;4915939;29;20644;-46
2023/07/19 04:30:05;;;;;;;14.05;9.02;;;;;;;15.41;94.81;101290.59;4922393;29;20386;-47
2023/07/19 04:32:30;;;;;;;12.98;9.25;;;;;;;15.44;95.09;101286.25;4917593;29;20032;-47
2023/07/19 04:34:55;;;;;;;13.05;9.02;;;;;;;15.46;93.83;101292.41;4928913;29;20923;-46
2023/07/19 04:37:21;;;;;;;17.58;9.63;;;;;;;15.51;93.73;101296.81;4927334;29;20024;-46
2023/07/19 04:39:46;;;;;;;12.07;9.90;;;;;;;15.53;93.74;101289.84;4929963;29;20229;-47
2023/07/19 04:42:12;;;;;;;13.27;10.00;;;;;;;15.56;93.65;101297.75;4929806;29;20530;-45
2023/07/19 04:44:38;;;;;;;19.83;10.43;;;;;;;15.59;93.19;101300.41;4917966;29;20573;-46
2023/07/19 04:47:04;;;;;;;17.58;10.68;;;;;;;15.59;92.66;101301.28;4920904;29;20036;-48
2023/07/19 04:49:30;;;;;;;13.88;10.32;;;;;;;15.62;93.13;101301.31;4915892;29;20063;-48
2023/07/19 04:51:56;;;;;;;16.42;10.38;;;;;;;15.66;92.79;101302.25;4916916;29;20031;-49
2023/07/19 04:54:21;;;;;;;16.50;10.88;;;;;;;15.68;93.13;101300.50;4915204;29;20109;-46
2023/07/19 04:56:47;;;;;;;15.98;11.75;;;;;;;15.68;91.91;101308.38;4921695;29;20443;-49
2023/07/19 04:59:12;;;;;;;16.02;11.35;;;;;;;15.69;92.50;101311.91;4922171;29;20036;-48
2023/07/19 05:01:38;;;;;;;14.90;11.15;;;;;;;15.69;91.23;101312.78;4915306;29;20043;-49
2023/07/19 05:04:03;;;;;;;14.75;11.40;;;;;;;15.72;93.08;101315.44;4914733;29;20056;-48
2023/07/19 05:06:29;;;;;;;17.67;11.70;;;;;;;15.76;93.19;101309.34;4922643;29;20103;-46
2023/07/19 05:08:54;;;;;;;15.88;11.18;;;;;;;15.78;92.88;101312.88;4915277;29;20103;-46
2023/07/19 05:11:20;;;;;;;16.45;11.20;;;;;;;15.81;92.86;101312.03;4915468;29;20408;-47
2023/07/19 05:13:46;;;;;;;16.00;11.13;;;;;;;15.82;91.65;101309.44;4914470;29;20384;-48
2023/07/19 05:16:11;;;;;;;15.93;11.73;;;;;;;15.84;91.90;101309.44;4915157;29;20024;-48
2023/07/19 05:18:36;;;;;;;16.20;12.05;;;;;;;15.86;91.90;101306.81;4914993;29;20486;-48
2023/07/19 05:21:02;;;;;;;17.83;13.00;;;;;;;15.88;91.81;101313.00;4915196;29;20036;-46
2023/07/19 05:23:27;;;;;;;16.10;12.30;;;;;;;15.93;91.43;101311.25;4914986;29;20491;-49
2023/07/19 05:25:52;;;;;;;17.75;12.55;;;;;;;15.97;91.92;101313.06;4903458;29;20031;-46
2023/07/19 05:28:20;;;;;;;16.30;12.35;;;;;;;16.03;91.43;101314.88;4915137;29;20099;-48
2023/07/19 05:30:45;;;;;;;17.48;12.45;;;;;;;16.09;91.61;101310.56;4915200;29;20103;-49
2023/07/19 05:33:11;;;;;;;17.25;12.95;;;;;;;16.15;91.04;101312.34;4914853;29;20546;-49
2023/07/19 05:35:37;;;;;;;14.35;11.75;;;;;;;16.20;89.79;101305.38;4913978;29;20465;-47
2023/07/19 05:38:03;;;;;;;18.90;13.25;;;;;;;16.26;90.48;101315.91;4915116;29;20083;-48
2023/07/19 05:40:30;;;;;;;17.67;13.77;;;;;;;16.33;90.92;101311.59;4922465;29;20036;-49
2023/07/19 05:42:56;;;;;;;20.33;13.45;;;;;;;16.39;90.98;101306.38;4907433;29;20036;-50
2023/07/19 05:45:21;;;;;;;17.67;12.82;;;;;;;16.42;90.56;101295.88;4914847;29;20048;-49
2023/07/19 05:47:47;;;;;;;19.98;12.30;;;;;;;16.47;88.96;101299.44;4928222;29;20386;-48
2023/07/19 05:50:12;;;;;;;17.65;13.52;;;;;;;16.51;90.34;101295.06;4917677;29;20040;-46
2023/07/19 05:52:39;;;;;;;20.40;14.52;;;;;;;16.56;89.57;101300.38;4920405;29;20538;-49
2023/07/19 05:55:06;;;;;;;16.45;13.15;;;;;;;16.59;89.14;101303.88;4912739;29;20028;-47
2023/07/19 05:57:31;;;;;;;17.88;12.90;;;;;;;16.65;87.53;101298.66;4920635;29;20495;-49
2023/07/19 06:00:05;;;;;;;17.35;12.80;;;;;;;16.68;88.35;101297.78;4924280;29;20138;-48
2023/07/19 06:02:31;;;;;;;19.02;12.90;;;;;;;16.73;87.30;101301.34;4914802;29;20028;-49
2023/07/19 06:04:57;;;;;;;17.00;12.50;;;;;;;16.78;88.02;101304.88;4911380;29;20024;-49
2023/07/19 06:07:23;;;;;;;18.27;12.57;;;;;;;16.81;87.60;101310.13;4916273;29;20409;-49
2023/07/19 06:09:48;;;;;;;17.70;12.25;;;;;;;16.84;87.96;101306.66;4914474;29;20491;-48
2023/07/19 06:12:14;;;;;;;17.65;12.00;;;;;;;16.89;87.65;101306.69;4915709;29;20028;-48
2023/07/19 06:14:39;;;;;;;16.42;12.13;;;;;;;16.95;87.06;101310.25;4915354;29;20103;-48
2023/07/19 06:17:05;;;;;;;18.42;12.57;;;;;;;17.00;87.27;101305.00;4928872;29;20039;-47
2023/07/19 06:19:30;;;;;;;16.83;11.55;;;;;;;17.07;85.99;101301.53;4920294;29;20039;-49
2023/07/19 06:21:56;;;;;;;15.40;10.85;;;;;;;17.17;84.02;101295.41;4914058;29;20028;-48
2023/07/19 06:24:21;;;;;;;17.40;11.18;;;;;;;17.30;85.14;101292.84;4913122;29;20020;-48
2023/07/19 06:26:47;;;;;;;12.95;9.77;;;;;;;17.37;83.93;101298.13;4922319;29;20028;-50
2023/07/19 06:29:12;;;;;;;12.45;9.75;;;;;;;17.45;83.34;101292.00;4918301;29;20043;-49
2023/07/19 06:31:37;;;;;;;15.60;9.57;;;;;;;17.53;82.51;101291.13;4917526;29;20024;-50
2023/07/19 06:34:02;;;;;;;12.23;8.77;;;;;;;17.64;82.30;101288.53;4921906;29;20485;-49
2023/07/19 06:36:28;;;;;;;14.75;8.60;;;;;;;17.69;80.99;101291.16;4912030;29;20033;-48
2023/07/19 06:38:53;;;;;;;16.10;9.00;;;;;;;17.68;80.72;101290.28;4913638;29;20490;-49
2023/07/19 06:41:18;;;;;;;15.50;9.02;;;;;;;17.70;80.54;101300.84;4914158;29;20039;-48
2023/07/19 06:43:44;;;;;;;13.18;8.85;;;;;;;17.73;81.02;101298.22;4915988;29;20047;-50
2023/07/19 06:46:09;;;;;;;14.07;8.30;;;;;;;17.82;79.66;101306.09;4917033;29;20040;-49
2023/07/19 06:48:34;;;;;;;13.68;8.65;;;;;;;17.82;79.79;101298.19;4921973;29;20130;-49
2023/07/19 06:51:00;;;;;;;14.38;8.60;;;;;;;17.90;81.26;101306.13;4914313;29;20027;-49
2023/07/19 06:53:25;;;;;;;13.00;8.52;;;;;;;17.97;80.61;101301.75;4917050;29;20115;-51
2023/07/19 06:55:53;;;;;;;13.02;8.48;;;;;;;18.05;80.60;101300.00;4920293;29;20071;-48
2023/07/19 06:58:18;;;;;;;12.10;8.98;;;;;;;18.16;80.01;101303.53;4913240;29;20104;-50
2023/07/19 07:00:43;;;;;;;13.02;8.80;;;;;;;18.25;78.90;101298.25;4918026;29;20102;-51
2023/07/19 07:03:09;;;;;;;12.63;9.07;;;;;;;18.37;80.19;101301.75;4893450;29;20125;-53
2023/07/19 07:05:34;;;;;;;12.20;8.05;;;;;;;18.54;80.21;101301.72;4918628;29;20443;-50
2023/07/19 07:07:59;;;;;;;14.68;8.63;;;;;;;18.69;78.40;101292.88;4913854;29;20530;-51
2023/07/19 07:10:25;;;;;;;11.45;7.18;;;;;;;18.85;78.01;101299.00;4914347;29;20165;-50
2023/07/19 07:12:50;;;;;;;13.43;8.35;;;;;;;19.00;78.71;101303.38;4915739;29;20036;-50
2023/07/19 07:15:15;;;;;;;13.50;7.55;;;;;;;19.11;77.41;101304.19;4913578;29;20063;-50
2023/07/19 07:17:41;;;;;;;13.02;7.07;;;;;;;19.14;74.94;101306.81;4915395;29;20047;-51
2023/07/19 07:20:07;;;;;;;12.52;7.60;;;;;;;19.14;76.06;101305.97;4912848;29;20395;-51
2023/07/19 07:22:33;;;;;;;11.48;6.55;;;;;;;19.16;76.01;101305.06;4915549;29;20106;-50
2023/07/19 07:24:59;;;;;;;10.35;7.25;;;;;;;19.18;76.75;101305.94;4925039;29;20065;-50
2023/07/19 07:27:25;;;;;;;13.02;8.07;;;;;;;19.23;75.82;101296.22;4920063;29;20046;-51
2023/07/19 07:29:50;;;;;;;10.90;7.40;;;;;;;19.20;77.38;101300.63;4913743;29;20020;-50
2023/07/19 07:32:15;;;;;;;12.90;7.40;;;;;;;19.23;77.41;101301.53;4911866;29;20039;-51
2023/07/19 07:34:41;;;;;;;11.02;7.15;;;;;;;19.27;75.34;101302.38;4918198;29;20067;-50
2023/07/19 07:37:06;;;;;;;8.23;5.72;;;;;;;19.30;73.75;101299.69;4912079;29;20037;-50
2023/07/19 07:39:32;;;;;;;9.13;5.47;;;;;;;19.24;74.28;101292.69;4911819;29;20450;-51
2023/07/19 07:41:57;;;;;;;10.13;5.65;;;;;;;19.25;74.08;101289.16;4908880;29;20024;-52
2023/07/19 07:44:22;;;;;;;10.60;4.97;;;;;;;19.28;74.04;101291.78;4907187;29;20486;-51
2023/07/19 07:46:49;;;;;;;8.10;5.00;;;;;;;19.41;75.48;101291.72;4917016;29;20028;-51
2023/07/19 07:49:14;;;;;;;10.02;4.70;;;;;;;19.57;73.83;101296.03;4913628;29;20024;-51
2023/07/19 07:51:40;;;;;;;9.52;4.20;;;;;;;19.66;69.73;101291.56;4913079;29;20363;-51
2023/07/19 07:54:05;;;;;;;10.93;4.30;;;;;;;19.57;70.50;101289.88;4916500;29;20063;-50
2023/07/19 07:56:30;;;;;;;8.85;4.18;;;;;;;19.49;70.92;101294.31;4899721;29;20028;-50
2023/07/19 07:58:56;;;;;;;9.05;4.03;;;;;;;19.43;70.80;101296.09;4916271;29;20039;-52
2023/07/19 08:01:21;;;;;;;6.15;3.50;;;;;;;19.45;70.68;101296.09;4903417;29;20032;-51
2023/07/19 08:03:46;;;;;;;8.23;3.95;;;;;;;19.48;70.45;101290.81;4925194;29;20474;-50
2023/07/19 08:06:12;;;;;;;11.23;4.00;;;;;;;19.46;70.16;101289.91;4917205;29;20517;-51
2023/07/19 08:08:37;;;;;;;10.00;3.90;;;;;;;19.54;71.13;101296.03;4913748;29;20034;-50
2023/07/19 08:11:05;;;;;;;7.82;3.72;;;;;;;19.64;68.96;101295.09;4916747;29;20115;-51
2023/07/19 08:13:30;;;;;;;11.32;4.22;;;;;;;19.58;70.68;101291.59;4914352;29;20443;-50
2023/07/19 08:15:55;;;;;;;9.02;4.40;;;;;;;19.62;71.45;101283.66;4917830;29;20533;-51
2023/07/19 08:18:21;;;;;;;10.32;4.63;;;;;;;19.74;72.47;101273.88;4915960;29;20134;-50
2023/07/19 08:20:46;;;;;;;10.70;4.82;;;;;;;20.02;72.74;101276.34;4918569;29;20024;-51
2023/07/19 08:23:11;;;;;;;8.70;5.32;;;;;;;20.25;72.55;101274.34;4916321;29;20020;-50
2023/07/19 08:25:38;;;;;;;11.30;4.90;;;;;;;20.35;71.65;101280.44;4913700;29;20027;-50
2023/07/19 08:28:03;;;;;;;9.65;3.90;;;;;;;20.52;68.76;101274.94;4911950;29;20020;-50
2023/07/19 08:30:30;;;;;;;8.30;4.00;;;;;;;20.61;66.34;101274.88;4911895;29;20038;-51
2023/07/19 08:32:56;;;;;;;7.47;3.97;;;;;;;20.56;67.30;101276.66;4913713;29;20128;-51
2023/07/19 08:35:21;;;;;;;9.10;4.13;;;;;;;20.49;68.08;101273.25;4913351;29;20055;-51
2023/07/19 08:37:46;;;;;;;9.23;3.83;;;;;;;20.44;67.51;101285.63;4916518;29;20537;-49
2023/07/19 08:40:14;;;;;;;11.07;3.35;;;;;;;20.40;65.93;101283.91;4914334;29;20024;-51
2023/07/19 08:42:40;;;;;;;8.05;3.35;;;;;;;20.30;65.81;101290.19;4910963;29;20154;-47
2023/07/19 08:45:07;;;;;;;8.05;3.42;;;;;;;20.22;66.30;101287.63;4915075;29;20035;-51
2023/07/19 08:47:33;;;;;;;10.02;4.15;;;;;;;20.13;68.06;101285.03;4916762;29;20400;-51
2023/07/19 08:50:00;;;;;;;8.20;4.05;;;;;;;20.22;69.73;101286.72;4914534;29;20024;-52
2023/07/19 08:52:27;;;;;;;12.57;3.80;;;;;;;20.31;68.63;101284.88;4914292;29;20152;-52
2023/07/19 08:54:52;;;;;;;9.68;3.90;;;;;;;20.35;66.34;101285.72;4915186;29;20115;-51
2023/07/19 08:57:17;;;;;;;8.68;4.13;;;;;;;20.37;66.35;101288.38;4920985;29;20111;-52
2023/07/19 08:59:43;;;;;;;12.20;4.28;;;;;;;20.31;66.05;101281.38;4915609;29;20028;-51
2023/07/19 09:02:08;;;;;;;9.45;4.13;;;;;;;20.34;68.07;101289.25;4915268;29;20091;-51
2023/07/19 09:04:35;;;;;;;10.48;4.90;;;;;;;20.39;69.95;101286.56;4915120;29;20035;-51
2023/07/19 09:07:04;;;;;;;8.80;4.53;;;;;;;20.58;69.42;101281.94;4913256;29;20023;-50
2023/07/19 09:09:29;;;;;;;11.77;5.03;;;;;;;20.71;70.56;101278.31;4915037;29;20047;-52
2023/07/19 09:11:54;;;;;;;7.50;4.95;;;;;;;20.87;67.50;101286.06;4913389;29;20028;-52
2023/07/19 09:14:33;;;;;;;8.90;5.13;;;;;;;20.93;66.50;101278.94;4913407;29;20020;-51
2023/07/19 09:16:59;;;;;;;;;;;;;;;21.05;66.88;101277.03;4912163;29;20035;-50
2023/07/19 09:19:24;;;;;;;7.63;4.70;;;;;;;21.05;67.02;101274.38;4911772;29;19919;-51
2023/07/19 09:21:50;;;;;;;8.82;4.88;;;;;;;20.99;67.50;101273.56;4914609;29;20426;-51
2023/07/19 09:24:15;;;;;;;10.18;5.40;;;;;;;20.93;67.86;101278.03;4913761;29;20051;-51
2023/07/19 09:26:47;;;;;;;9.55;5.15;;;;;;;20.98;69.58;101277.09;4914423;29;20075;-51
2023/07/19 09:29:12;;;;;;;9.23;5.60;;;;;;;21.19;65.85;101275.09;4914858;29;20032;-50
2023/07/19 09:32:01;;;;;;;9.18;5.18;;;;;;;21.11;67.35;101272.50;4914170;29;20555;-51
2023/07/19 09:34:38;;;;;;;9.15;5.18;;;;;;;21.33;68.10;101278.41;4915032;29;20529;-51
2023/07/19 09:37:04;;;;;;;9.45;5.78;;;;;;;21.50;66.95;101277.28;4914806;29;20479;-52
2023/07/19 09:39:31;;;;;;;9.55;4.97;;;;;;;21.64;64.70;101282.41;4915038;29;20052;-52
2023/07/19 09:41:57;;;;;;;11.88;5.40;;;;;;;21.68;66.16;101278.78;4924272;29;20039;-52
2023/07/19 09:44:23;;;;;;;9.15;4.68;;;;;;;21.63;66.41;101270.91;4914863;29;20098;-52
2023/07/19 09:46:48;;;;;;;6.78;4.18;;;;;;;21.77;65.18;101275.13;4914845;29;20470;-52
2023/07/19 09:49:14;;;;;;;9.25;4.32;;;;;;;21.79;65.72;101276.00;4914716;29;20065;-52
2023/07/19 09:51:41;;;;;;;7.40;3.95;;;;;;;21.79;67.04;101268.03;4925497;29;20509;-52
2023/07/19 09:54:09;;;;;;;10.00;4.10;;;;;;;21.94;66.30;101269.53;4914372;29;20047;-52
2023/07/19 09:56:35;;;;;;;7.80;4.00;;;;;;;22.05;65.98;101268.44;4909588;29;20024;-52
2023/07/19 09:59:03;;;;;;;6.72;4.00;;;;;;;22.13;63.67;101272.75;4913084;29;20079;-52
2023/07/19 10:01:28;;;;;;;7.38;4.20;;;;;;;22.13;64.13;101268.34;4904276;29;20042;-51
2023/07/19 10:03:57;;;;;;;7.50;4.05;;;;;;;22.12;63.38;101271.88;4914391;29;20397;-52
2023/07/19 10:06:29;;;;;;;12.55;4.55;;;;;;;21.96;64.32;101265.09;4913634;29;20056;-52
2023/07/19 10:09:22;;;;;;;7.03;3.90;;;;;;;22.03;63.99;101272.91;4917377;29;20042;-52
2023/07/19 10:11:50;;;;;;;7.40;3.40;;;;;;;22.17;63.44;101266.50;4911181;29;20036;-52
2023/07/19 10:14:27;;;;;;;7.68;3.42;;;;;;;22.33;63.41;101264.47;4896695;29;20032;-52
2023/07/19 10:16:57;;;;;;;9.00;3.97;;;;;;;22.55;61.23;101273.78;4893896;29;20402;-52
2023/07/19 10:19:23;;;;;;;8.55;3.67;;;;;;;22.56;61.53;101272.00;4917638;29;20043;-52
2023/07/19 10:22:08;;;;;;;7.13;3.72;;;;;;;22.59;62.38;101266.63;4912032;29;20032;-52
2023/07/19 10:24:35;;;;;;;8.23;3.42;;;;;;;22.50;60.71;101269.47;4913545;29;20055;-52
2023/07/19 10:27:06;;;;;;;8.23;3.20;;;;;;;22.34;60.75;101268.88;4912922;29;20035;-52
2023/07/19 10:29:42;;;;;;;5.57;2.90;;;;;;;22.33;61.62;101277.75;4913741;29;20573;-52
2023/07/19 10:32:08;;;;;;;5.90;2.88;;;;;;;22.23;62.26;101275.22;4904520;29;20044;-52
2023/07/19 10:34:33;;;;;;;6.03;3.10;;;;;;;22.22;61.26;101276.13;4919793;29;20024;-52
2023/07/19 10:37:06;;;;;;;8.90;3.47;;;;;;;22.27;60.54;101288.44;4913125;29;20541;-52
2023/07/19 10:39:32;;;;;;;8.48;2.92;;;;;;;22.33;61.40;101283.94;4915716;29;20039;-52
2023/07/19 10:41:59;;;;;;;8.60;3.15;;;;;;;22.43;62.16;101267.81;4913639;29;20037;-52
2023/07/19 10:44:26;;;;;;;8.32;3.00;;;;;;;22.54;60.70;101273.81;4918684;29;20163;-52
2023/07/19 10:46:53;;;;;;;6.65;3.38;;;;;;;22.63;59.86;101280.72;4913544;29;20036;-53
2023/07/19 10:49:18;;;;;;;6.40;3.15;;;;;;;22.65;58.58;101269.16;4913449;29;20020;-52
2023/07/19 10:51:57;;;;;;;7.10;2.92;;;;;;;22.63;60.11;101265.66;4913331;29;20378;-52
2023/07/19 10:54:23;;;;;;;7.03;2.92;;;;;;;22.64;59.80;101266.50;4906432;29;20060;-52
2023/07/19 10:56:49;;;;;;;5.45;2.67;;;;;;;22.64;57.91;101269.16;4913560;29;20036;-52
2023/07/19 10:59:15;;;;;;;5.40;2.78;;;;;;;22.63;58.75;101270.09;4917633;29;20406;-52
2023/07/19 11:01:40;;;;;;;6.57;2.95;;;;;;;22.63;58.46;101270.09;4913071;29;20030;-52
2023/07/19 11:04:11;;;;;;;5.47;2.60;;;;;;;22.56;58.20;101274.66;4911879;29;20491;-52
2023/07/19 11:06:54;;;;;;;7.30;2.90;;;;;;;22.33;59.69;101265.34;4912650;29;20051;-52
2023/07/19 11:09:22;;;;;;;6.32;2.58;;;;;;;22.12;59.71;101276.34;4913199;29;20600;-51
2023/07/19 11:11:48;;;;;;;7.13;2.70;;;;;;;21.94;59.98;101277.50;4913860;29;20031;-52
2023/07/19 11:14:33;;;;;;;6.28;3.20;;;;;;;21.83;60.82;101285.66;4912774;29;20059;-52
2023/07/19 11:16:59;;;;;;;8.70;3.67;;;;;;;21.60;66.93;101276.28;4927495;29;20490;-51